sensor_id;sensor_type;location;lat;lon;timestamp;P1;durP1;ratioP1;P2;durP2;ratioP2
14007;SDS011;61651;45.508;12.232;2022-08-19T00:02:22;3.28;;;2.25;;
14007;SDS011;61651;45.508;12.232;2022-08-19T00:05:24;7.20;;;2.10;;
14007;SDS011;61651;45.508;12.232;2022-08-19T00:08:26;4.97;;;2.35;;
14007;SDS011;61651;45.508;12.232;2022-08-19T00:11:29;8.32;;;2.70;;
14007;SDS011;61651;45.508;12.232;2022-08-19T00:14:31;5.88;;;2.20;;
14007;SDS011;61651;45.508;12.232;2022-08-19T00:17:33;5.25;;;2.97;;
14007;SDS011;61651;45.508;12.232;2022-08-19T00:20:35;6.10;;;2.83;;
14007;SDS011;61651;45.508;12.232;2022-08-19T00:23:40;5.18;;;3.33;;
14007;SDS011;61651;45.508;12.232;2022-08-19T00:26:44;4.97;;;2.72;;
14007;SDS011;61651;45.508;12.232;2022-08-19T00:29:47;5.40;;;3.42;;
14007;SDS011;61651;45.508;12.232;2022-08-19T00:32:49;3.20;;;2.70;;
14007;SDS011;61651;45.508;12.232;2022-08-19T00:35:51;5.38;;;2.35;;
14007;SDS011;61651;45.508;12.232;2022-08-19T00:38:53;4.85;;;2.50;;
14007;SDS011;61651;45.508;12.232;2022-08-19T00:41:56;7.07;;;2.63;;
14007;SDS011;61651;45.508;12.232;2022-08-19T00:44:58;6.60;;;3.33;;
14007;SDS011;61651;45.508;12.232;2022-08-19T00:48:00;6.07;;;2.90;;
14007;SDS011;61651;45.508;12.232;2022-08-19T00:51:04;6.53;;;3.08;;
14007;SDS011;61651;45.508;12.232;2022-08-19T00:54:07;6.47;;;2.67;;
14007;SDS011;61651;45.508;12.232;2022-08-19T00:57:11;3.88;;;2.28;;
14007;SDS011;61651;45.508;12.232;2022-08-19T01:00:18;8.65;;;2.50;;
14007;SDS011;61651;45.508;12.232;2022-08-19T01:03:21;6.22;;;2.70;;
14007;SDS011;61651;45.508;12.232;2022-08-19T01:06:23;6.35;;;2.70;;
14007;SDS011;61651;45.508;12.232;2022-08-19T01:09:25;4.80;;;2.28;;
14007;SDS011;61651;45.508;12.232;2022-08-19T01:12:28;5.47;;;2.40;;
14007;SDS011;61651;45.508;12.232;2022-08-19T01:15:32;6.20;;;2.47;;
14007;SDS011;61651;45.508;12.232;2022-08-19T01:18:42;5.22;;;2.40;;
14007;SDS011;61651;45.508;12.232;2022-08-19T01:21:45;3.08;;;2.40;;
14007;SDS011;61651;45.508;12.232;2022-08-19T01:24:53;7.05;;;2.80;;
14007;SDS011;61651;45.508;12.232;2022-08-19T01:27:55;4.82;;;2.40;;
14007;SDS011;61651;45.508;12.232;2022-08-19T01:30:58;4.03;;;2.47;;
14007;SDS011;61651;45.508;12.232;2022-08-19T01:34:00;5.57;;;3.10;;
14007;SDS011;61651;45.508;12.232;2022-08-19T01:37:05;3.92;;;2.22;;
14007;SDS011;61651;45.508;12.232;2022-08-19T01:40:12;2.20;;;2.00;;
14007;SDS011;61651;45.508;12.232;2022-08-19T01:43:14;3.05;;;2.10;;
14007;SDS011;61651;45.508;12.232;2022-08-19T01:46:18;5.18;;;2.30;;
14007;SDS011;61651;45.508;12.232;2022-08-19T01:49:21;3.85;;;2.33;;
14007;SDS011;61651;45.508;12.232;2022-08-19T01:52:25;7.47;;;2.85;;
14007;SDS011;61651;45.508;12.232;2022-08-19T01:55:28;5.63;;;2.47;;
14007;SDS011;61651;45.508;12.232;2022-08-19T01:58:32;7.53;;;2.75;;
14007;SDS011;61651;45.508;12.232;2022-08-19T02:01:38;6.13;;;2.53;;
14007;SDS011;61651;45.508;12.232;2022-08-19T02:04:40;5.18;;;2.22;;
14007;SDS011;61651;45.508;12.232;2022-08-19T02:07:42;5.15;;;1.98;;
14007;SDS011;61651;45.508;12.232;2022-08-19T02:10:46;8.02;;;2.72;;
14007;SDS011;61651;45.508;12.232;2022-08-19T02:13:48;9.43;;;2.53;;
14007;SDS011;61651;45.508;12.232;2022-08-19T02:16:50;6.63;;;2.10;;
14007;SDS011;61651;45.508;12.232;2022-08-19T02:19:52;5.82;;;2.38;;
14007;SDS011;61651;45.508;12.232;2022-08-19T02:22:54;5.95;;;1.90;;
14007;SDS011;61651;45.508;12.232;2022-08-19T02:25:57;6.15;;;2.30;;
14007;SDS011;61651;45.508;12.232;2022-08-19T02:28:59;5.50;;;1.90;;
14007;SDS011;61651;45.508;12.232;2022-08-19T02:32:02;7.65;;;2.35;;
14007;SDS011;61651;45.508;12.232;2022-08-19T02:35:05;4.40;;;2.10;;
14007;SDS011;61651;45.508;12.232;2022-08-19T02:38:07;5.13;;;1.95;;
14007;SDS011;61651;45.508;12.232;2022-08-19T02:41:31;6.65;;;2.08;;
14007;SDS011;61651;45.508;12.232;2022-08-19T02:44:34;6.35;;;2.13;;
14007;SDS011;61651;45.508;12.232;2022-08-19T02:47:37;6.35;;;2.67;;
14007;SDS011;61651;45.508;12.232;2022-08-19T02:50:39;3.88;;;2.20;;
14007;SDS011;61651;45.508;12.232;2022-08-19T02:53:41;3.70;;;2.17;;
14007;SDS011;61651;45.508;12.232;2022-08-19T02:56:45;5.13;;;2.28;;
14007;SDS011;61651;45.508;12.232;2022-08-19T02:59:47;5.25;;;2.88;;
14007;SDS011;61651;45.508;12.232;2022-08-19T03:02:49;4.03;;;1.73;;
14007;SDS011;61651;45.508;12.232;2022-08-19T03:05:51;5.82;;;1.98;;
14007;SDS011;61651;45.508;12.232;2022-08-19T03:09:03;8.32;;;2.10;;
14007;SDS011;61651;45.508;12.232;2022-08-19T03:12:07;3.55;;;1.90;;
14007;SDS011;61651;45.508;12.232;2022-08-19T03:15:10;3.55;;;1.50;;
14007;SDS011;61651;45.508;12.232;2022-08-19T03:18:13;4.28;;;1.73;;
14007;SDS011;61651;45.508;12.232;2022-08-19T03:21:15;2.30;;;1.90;;
14007;SDS011;61651;45.508;12.232;2022-08-19T03:24:18;3.47;;;2.17;;
14007;SDS011;61651;45.508;12.232;2022-08-19T03:27:22;5.72;;;2.33;;
14007;SDS011;61651;45.508;12.232;2022-08-19T03:30:24;2.38;;;1.67;;
14007;SDS011;61651;45.508;12.232;2022-08-19T03:33:27;2.35;;;2.15;;
14007;SDS011;61651;45.508;12.232;2022-08-19T03:36:30;1.52;;;1.20;;
14007;SDS011;61651;45.508;12.232;2022-08-19T03:39:32;3.20;;;2.00;;
14007;SDS011;61651;45.508;12.232;2022-08-19T03:42:37;4.88;;;1.58;;
14007;SDS011;61651;45.508;12.232;2022-08-19T03:45:41;3.00;;;1.83;;
14007;SDS011;61651;45.508;12.232;2022-08-19T03:48:43;2.63;;;1.77;;
14007;SDS011;61651;45.508;12.232;2022-08-19T03:51:46;3.45;;;1.70;;
14007;SDS011;61651;45.508;12.232;2022-08-19T03:54:50;3.10;;;1.65;;
14007;SDS011;61651;45.508;12.232;2022-08-19T03:57:53;3.10;;;1.90;;
14007;SDS011;61651;45.508;12.232;2022-08-19T04:00:56;6.32;;;1.85;;
14007;SDS011;61651;45.508;12.232;2022-08-19T04:03:59;4.05;;;1.83;;
14007;SDS011;61651;45.508;12.232;2022-08-19T04:07:01;3.05;;;1.80;;
14007;SDS011;61651;45.508;12.232;2022-08-19T04:10:03;5.13;;;1.92;;
14007;SDS011;61651;45.508;12.232;2022-08-19T04:13:07;3.75;;;1.52;;
14007;SDS011;61651;45.508;12.232;2022-08-19T04:16:10;4.88;;;1.83;;
14007;SDS011;61651;45.508;12.232;2022-08-19T04:19:12;5.25;;;1.73;;
14007;SDS011;61651;45.508;12.232;2022-08-19T04:22:15;3.05;;;1.50;;
14007;SDS011;61651;45.508;12.232;2022-08-19T04:25:18;3.35;;;1.83;;
14007;SDS011;61651;45.508;12.232;2022-08-19T04:28:22;2.35;;;1.70;;
14007;SDS011;61651;45.508;12.232;2022-08-19T04:31:25;4.13;;;2.10;;
14007;SDS011;61651;45.508;12.232;2022-08-19T04:34:29;2.45;;;1.80;;
14007;SDS011;61651;45.508;12.232;2022-08-19T04:37:31;3.45;;;1.85;;
14007;SDS011;61651;45.508;12.232;2022-08-19T04:40:33;5.88;;;1.83;;
14007;SDS011;61651;45.508;12.232;2022-08-19T04:43:59;3.35;;;1.70;;
14007;SDS011;61651;45.508;12.232;2022-08-19T04:47:02;3.67;;;1.80;;
14007;SDS011;61651;45.508;12.232;2022-08-19T04:50:06;4.30;;;1.98;;
14007;SDS011;61651;45.508;12.232;2022-08-19T04:53:11;1.90;;;1.60;;
14007;SDS011;61651;45.508;12.232;2022-08-19T04:56:14;6.03;;;1.70;;
14007;SDS011;61651;45.508;12.232;2022-08-19T04:59:21;1.90;;;1.80;;
14007;SDS011;61651;45.508;12.232;2022-08-19T05:02:23;4.68;;;2.05;;
14007;SDS011;61651;45.508;12.232;2022-08-19T05:05:25;6.05;;;1.70;;
14007;SDS011;61651;45.508;12.232;2022-08-19T05:08:27;2.03;;;1.60;;
14007;SDS011;61651;45.508;12.232;2022-08-19T05:11:30;7.35;;;2.00;;
14007;SDS011;61651;45.508;12.232;2022-08-19T05:14:35;5.20;;;1.98;;
14007;SDS011;61651;45.508;12.232;2022-08-19T05:17:37;2.17;;;1.73;;
14007;SDS011;61651;45.508;12.232;2022-08-19T05:21:04;2.60;;;1.75;;
14007;SDS011;61651;45.508;12.232;2022-08-19T05:24:25;3.63;;;1.80;;
14007;SDS011;61651;45.508;12.232;2022-08-19T05:27:28;5.05;;;2.10;;
14007;SDS011;61651;45.508;12.232;2022-08-19T05:30:31;2.53;;;1.83;;
14007;SDS011;61651;45.508;12.232;2022-08-19T05:33:34;3.40;;;1.90;;
14007;SDS011;61651;45.508;12.232;2022-08-19T05:36:37;4.53;;;2.17;;
14007;SDS011;61651;45.508;12.232;2022-08-19T05:39:40;2.47;;;1.88;;
14007;SDS011;61651;45.508;12.232;2022-08-19T05:42:43;4.45;;;1.70;;
14007;SDS011;61651;45.508;12.232;2022-08-19T05:45:46;3.00;;;1.80;;
14007;SDS011;61651;45.508;12.232;2022-08-19T05:48:50;3.53;;;1.90;;
14007;SDS011;61651;45.508;12.232;2022-08-19T05:51:52;3.75;;;2.10;;
14007;SDS011;61651;45.508;12.232;2022-08-19T05:54:56;3.83;;;1.95;;
14007;SDS011;61651;45.508;12.232;2022-08-19T05:57:58;1.90;;;1.65;;
14007;SDS011;61651;45.508;12.232;2022-08-19T06:01:03;2.83;;;1.90;;
14007;SDS011;61651;45.508;12.232;2022-08-19T06:04:10;5.22;;;2.50;;
14007;SDS011;61651;45.508;12.232;2022-08-19T06:07:14;2.65;;;2.08;;
14007;SDS011;61651;45.508;12.232;2022-08-19T06:10:17;2.25;;;1.80;;
14007;SDS011;61651;45.508;12.232;2022-08-19T06:13:18;2.63;;;1.58;;
14007;SDS011;61651;45.508;12.232;2022-08-19T06:16:22;2.17;;;1.58;;
14007;SDS011;61651;45.508;12.232;2022-08-19T06:19:24;5.93;;;1.90;;
14007;SDS011;61651;45.508;12.232;2022-08-19T06:22:27;3.65;;;1.80;;
14007;SDS011;61651;45.508;12.232;2022-08-19T06:25:29;3.47;;;1.80;;
14007;SDS011;61651;45.508;12.232;2022-08-19T06:28:31;2.85;;;1.65;;
14007;SDS011;61651;45.508;12.232;2022-08-19T06:31:35;3.38;;;2.25;;
14007;SDS011;61651;45.508;12.232;2022-08-19T06:34:38;2.33;;;1.60;;
14007;SDS011;61651;45.508;12.232;2022-08-19T06:37:41;3.72;;;1.50;;
14007;SDS011;61651;45.508;12.232;2022-08-19T06:40:44;4.85;;;1.80;;
14007;SDS011;61651;45.508;12.232;2022-08-19T06:43:46;3.22;;;1.35;;
14007;SDS011;61651;45.508;12.232;2022-08-19T06:46:50;2.30;;;1.65;;
14007;SDS011;61651;45.508;12.232;2022-08-19T06:49:53;2.38;;;1.42;;
14007;SDS011;61651;45.508;12.232;2022-08-19T06:53:00;4.32;;;1.67;;
14007;SDS011;61651;45.508;12.232;2022-08-19T06:56:02;4.10;;;1.67;;
14007;SDS011;61651;45.508;12.232;2022-08-19T06:59:05;1.63;;;1.38;;
14007;SDS011;61651;45.508;12.232;2022-08-19T07:02:10;2.38;;;1.50;;
14007;SDS011;61651;45.508;12.232;2022-08-19T07:05:12;5.38;;;1.63;;
14007;SDS011;61651;45.508;12.232;2022-08-19T07:08:14;1.50;;;1.30;;
14007;SDS011;61651;45.508;12.232;2022-08-19T07:11:17;2.33;;;1.70;;
14007;SDS011;61651;45.508;12.232;2022-08-19T07:14:21;2.58;;;1.55;;
14007;SDS011;61651;45.508;12.232;2022-08-19T07:17:26;3.50;;;1.83;;
14007;SDS011;61651;45.508;12.232;2022-08-19T07:20:28;4.38;;;1.80;;
14007;SDS011;61651;45.508;12.232;2022-08-19T07:23:31;2.70;;;1.48;;
14007;SDS011;61651;45.508;12.232;2022-08-19T07:26:38;2.95;;;1.50;;
14007;SDS011;61651;45.508;12.232;2022-08-19T07:29:41;5.38;;;1.30;;
14007;SDS011;61651;45.508;12.232;2022-08-19T07:32:45;2.22;;;1.38;;
14007;SDS011;61651;45.508;12.232;2022-08-19T07:35:47;2.58;;;1.90;;
14007;SDS011;61651;45.508;12.232;2022-08-19T07:38:49;4.20;;;1.65;;
14007;SDS011;61651;45.508;12.232;2022-08-19T07:41:53;3.10;;;1.30;;
14007;SDS011;61651;45.508;12.232;2022-08-19T07:44:56;3.42;;;1.30;;
14007;SDS011;61651;45.508;12.232;2022-08-19T07:48:00;2.80;;;1.70;;
14007;SDS011;61651;45.508;12.232;2022-08-19T07:51:04;2.08;;;1.40;;
14007;SDS011;61651;45.508;12.232;2022-08-19T07:54:08;3.55;;;1.70;;
14007;SDS011;61651;45.508;12.232;2022-08-19T07:57:11;6.88;;;1.65;;
14007;SDS011;61651;45.508;12.232;2022-08-19T08:00:14;2.83;;;1.60;;
14007;SDS011;61651;45.508;12.232;2022-08-19T08:03:19;2.28;;;1.42;;
14007;SDS011;61651;45.508;12.232;2022-08-19T08:06:42;2.17;;;1.40;;
14007;SDS011;61651;45.508;12.232;2022-08-19T08:10:03;1.50;;;1.40;;
14007;SDS011;61651;45.508;12.232;2022-08-19T08:13:06;2.05;;;1.58;;
14007;SDS011;61651;45.508;12.232;2022-08-19T08:16:08;2.78;;;1.50;;
14007;SDS011;61651;45.508;12.232;2022-08-19T08:19:12;4.97;;;1.50;;
14007;SDS011;61651;45.508;12.232;2022-08-19T08:22:16;2.53;;;1.25;;
14007;SDS011;61651;45.508;12.232;2022-08-19T08:25:34;2.42;;;1.17;;
14007;SDS011;61651;45.508;12.232;2022-08-19T08:28:37;1.55;;;1.38;;
14007;SDS011;61651;45.508;12.232;2022-08-19T08:31:40;1.80;;;1.52;;
14007;SDS011;61651;45.508;12.232;2022-08-19T08:34:44;2.35;;;1.67;;
14007;SDS011;61651;45.508;12.232;2022-08-19T08:37:47;2.30;;;1.65;;
14007;SDS011;61651;45.508;12.232;2022-08-19T08:40:52;1.98;;;1.25;;
14007;SDS011;61651;45.508;12.232;2022-08-19T08:44:03;2.78;;;1.45;;
14007;SDS011;61651;45.508;12.232;2022-08-19T08:47:09;2.17;;;1.10;;
14007;SDS011;61651;45.508;12.232;2022-08-19T08:50:18;1.55;;;1.45;;
14007;SDS011;61651;45.508;12.232;2022-08-19T08:53:23;2.05;;;1.63;;
14007;SDS011;61651;45.508;12.232;2022-08-19T08:56:26;2.17;;;1.38;;
14007;SDS011;61651;45.508;12.232;2022-08-19T08:59:29;1.80;;;1.50;;
14007;SDS011;61651;45.508;12.232;2022-08-19T09:02:35;4.97;;;1.83;;
14007;SDS011;61651;45.508;12.232;2022-08-19T09:05:40;2.97;;;1.30;;
14007;SDS011;61651;45.508;12.232;2022-08-19T09:08:50;3.58;;;1.52;;
14007;SDS011;61651;45.508;12.232;2022-08-19T09:12:02;3.05;;;1.83;;
14007;SDS011;61651;45.508;12.232;2022-08-19T09:15:12;3.30;;;1.20;;
14007;SDS011;61651;45.508;12.232;2022-08-19T09:18:16;1.67;;;1.27;;
14007;SDS011;61651;45.508;12.232;2022-08-19T09:21:20;2.22;;;1.13;;
14007;SDS011;61651;45.508;12.232;2022-08-19T09:24:23;2.33;;;1.20;;
14007;SDS011;61651;45.508;12.232;2022-08-19T09:27:26;1.98;;;1.15;;
14007;SDS011;61651;45.508;12.232;2022-08-19T09:30:30;2.17;;;1.13;;
14007;SDS011;61651;45.508;12.232;2022-08-19T09:33:34;2.47;;;1.27;;
14007;SDS011;61651;45.508;12.232;2022-08-19T09:36:38;2.05;;;1.00;;
14007;SDS011;61651;45.508;12.232;2022-08-19T09:39:40;1.17;;;1.08;;
14007;SDS011;61651;45.508;12.232;2022-08-19T09:42:42;1.33;;;0.90;;
14007;SDS011;61651;45.508;12.232;2022-08-19T09:45:47;2.85;;;1.10;;
14007;SDS011;61651;45.508;12.232;2022-08-19T09:48:49;2.30;;;1.00;;
14007;SDS011;61651;45.508;12.232;2022-08-19T09:51:53;2.03;;;1.00;;
14007;SDS011;61651;45.508;12.232;2022-08-19T09:54:56;0.82;;;0.82;;
14007;SDS011;61651;45.508;12.232;2022-08-19T09:58:01;1.38;;;1.10;;
14007;SDS011;61651;45.508;12.232;2022-08-19T10:01:03;1.63;;;1.00;;
14007;SDS011;61651;45.508;12.232;2022-08-19T10:04:06;1.52;;;1.10;;
14007;SDS011;61651;45.508;12.232;2022-08-19T10:07:10;1.35;;;1.10;;
14007;SDS011;61651;45.508;12.232;2022-08-19T10:10:13;1.42;;;1.10;;
14007;SDS011;61651;45.508;12.232;2022-08-19T10:13:17;1.23;;;1.00;;
14007;SDS011;61651;45.508;12.232;2022-08-19T10:16:25;2.45;;;1.30;;
14007;SDS011;61651;45.508;12.232;2022-08-19T10:19:27;1.70;;;1.27;;
14007;SDS011;61651;45.508;12.232;2022-08-19T10:22:33;1.73;;;1.27;;
14007;SDS011;61651;45.508;12.232;2022-08-19T10:25:37;2.50;;;1.20;;
14007;SDS011;61651;45.508;12.232;2022-08-19T10:28:39;2.65;;;1.10;;
14007;SDS011;61651;45.508;12.232;2022-08-19T10:31:42;1.45;;;1.13;;
14007;SDS011;61651;45.508;12.232;2022-08-19T10:34:44;2.08;;;1.30;;
14007;SDS011;61651;45.508;12.232;2022-08-19T10:37:48;1.30;;;1.20;;
14007;SDS011;61651;45.508;12.232;2022-08-19T10:40:50;4.30;;;1.25;;
14007;SDS011;61651;45.508;12.232;2022-08-19T10:43:53;2.30;;;1.40;;
14007;SDS011;61651;45.508;12.232;2022-08-19T10:46:58;1.17;;;1.08;;
14007;SDS011;61651;45.508;12.232;2022-08-19T10:50:00;1.63;;;1.30;;
14007;SDS011;61651;45.508;12.232;2022-08-19T10:53:21;2.53;;;1.60;;
14007;SDS011;61651;45.508;12.232;2022-08-19T10:56:25;2.85;;;1.23;;
14007;SDS011;61651;45.508;12.232;2022-08-19T10:59:46;1.33;;;1.23;;
14007;SDS011;61651;45.508;12.232;2022-08-19T11:02:48;0.98;;;0.95;;
14007;SDS011;61651;45.508;12.232;2022-08-19T11:05:56;2.55;;;1.27;;
14007;SDS011;61651;45.508;12.232;2022-08-19T11:09:00;1.98;;;1.23;;
14007;SDS011;61651;45.508;12.232;2022-08-19T11:12:04;3.35;;;1.50;;
14007;SDS011;61651;45.508;12.232;2022-08-19T11:15:08;3.50;;;1.38;;
14007;SDS011;61651;45.508;12.232;2022-08-19T11:18:11;1.65;;;1.17;;
14007;SDS011;61651;45.508;12.232;2022-08-19T11:21:14;2.63;;;1.08;;
14007;SDS011;61651;45.508;12.232;2022-08-19T11:24:21;2.37;;;1.40;;
14007;SDS011;61651;45.508;12.232;2022-08-19T11:27:25;1.67;;;1.20;;
14007;SDS011;61651;45.508;12.232;2022-08-19T11:30:28;1.67;;;1.10;;
14007;SDS011;61651;45.508;12.232;2022-08-19T11:33:30;1.38;;;1.20;;
14007;SDS011;61651;45.508;12.232;2022-08-19T11:36:33;1.30;;;1.20;;
14007;SDS011;61651;45.508;12.232;2022-08-19T11:39:40;1.40;;;1.30;;
14007;SDS011;61651;45.508;12.232;2022-08-19T11:42:42;1.90;;;1.35;;
14007;SDS011;61651;45.508;12.232;2022-08-19T11:45:56;3.58;;;1.08;;
14007;SDS011;61651;45.508;12.232;2022-08-19T11:48:59;4.22;;;1.60;;
14007;SDS011;61651;45.508;12.232;2022-08-19T11:52:03;2.45;;;1.40;;
14007;SDS011;61651;45.508;12.232;2022-08-19T11:55:07;1.30;;;1.20;;
14007;SDS011;61651;45.508;12.232;2022-08-19T11:58:09;1.58;;;1.15;;
14007;SDS011;61651;45.508;12.232;2022-08-19T12:01:12;1.23;;;1.13;;
14007;SDS011;61651;45.508;12.232;2022-08-19T12:04:15;1.17;;;1.02;;
14007;SDS011;61651;45.508;12.232;2022-08-19T12:07:17;2.30;;;1.20;;
14007;SDS011;61651;45.508;12.232;2022-08-19T12:10:21;0.90;;;0.90;;
14007;SDS011;61651;45.508;12.232;2022-08-19T12:13:24;0.90;;;0.90;;
14007;SDS011;61651;45.508;12.232;2022-08-19T12:16:27;1.75;;;1.10;;
14007;SDS011;61651;45.508;12.232;2022-08-19T12:19:30;2.33;;;1.00;;
14007;SDS011;61651;45.508;12.232;2022-08-19T12:22:32;1.02;;;0.95;;
14007;SDS011;61651;45.508;12.232;2022-08-19T12:25:36;1.00;;;1.00;;
14007;SDS011;61651;45.508;12.232;2022-08-19T12:28:39;0.90;;;0.90;;
14007;SDS011;61651;45.508;12.232;2022-08-19T12:31:41;1.10;;;1.00;;
14007;SDS011;61651;45.508;12.232;2022-08-19T12:34:43;2.92;;;1.10;;
14007;SDS011;61651;45.508;12.232;2022-08-19T12:37:47;1.17;;;1.08;;
14007;SDS011;61651;45.508;12.232;2022-08-19T12:40:51;1.20;;;1.10;;
14007;SDS011;61651;45.508;12.232;2022-08-19T12:43:53;1.50;;;1.02;;
14007;SDS011;61651;45.508;12.232;2022-08-19T12:46:55;1.05;;;0.80;;
14007;SDS011;61651;45.508;12.232;2022-08-19T12:49:57;0.80;;;0.80;;
14007;SDS011;61651;45.508;12.232;2022-08-19T12:52:59;2.10;;;1.00;;
14007;SDS011;61651;45.508;12.232;2022-08-19T12:56:03;2.25;;;1.00;;
14007;SDS011;61651;45.508;12.232;2022-08-19T12:59:06;2.00;;;1.00;;
14007;SDS011;61651;45.508;12.232;2022-08-19T13:02:08;1.20;;;1.10;;
14007;SDS011;61651;45.508;12.232;2022-08-19T13:05:12;1.83;;;0.95;;
14007;SDS011;61651;45.508;12.232;2022-08-19T13:08:16;1.35;;;1.13;;
14007;SDS011;61651;45.508;12.232;2022-08-19T13:11:20;1.10;;;1.00;;
14007;SDS011;61651;45.508;12.232;2022-08-19T13:14:24;2.33;;;1.20;;
14007;SDS011;61651;45.508;12.232;2022-08-19T13:17:26;1.90;;;1.15;;
14007;SDS011;61651;45.508;12.232;2022-08-19T13:20:28;2.00;;;1.00;;
14007;SDS011;61651;45.508;12.232;2022-08-19T13:23:30;1.40;;;1.15;;
14007;SDS011;61651;45.508;12.232;2022-08-19T13:26:34;1.20;;;1.08;;
14007;SDS011;61651;45.508;12.232;2022-08-19T13:29:36;2.47;;;1.10;;
14007;SDS011;61651;45.508;12.232;2022-08-19T13:32:55;1.17;;;1.08;;
14007;SDS011;61651;45.508;12.232;2022-08-19T13:36:14;1.58;;;1.15;;
14007;SDS011;61651;45.508;12.232;2022-08-19T13:39:15;1.35;;;1.10;;
14007;SDS011;61651;45.508;12.232;2022-08-19T13:42:19;2.10;;;1.30;;
14007;SDS011;61651;45.508;12.232;2022-08-19T13:45:21;2.58;;;1.10;;
14007;SDS011;61651;45.508;12.232;2022-08-19T13:48:25;1.85;;;1.00;;
14007;SDS011;61651;45.508;12.232;2022-08-19T13:51:27;1.90;;;1.40;;
14007;SDS011;61651;45.508;12.232;2022-08-19T13:54:30;1.77;;;1.20;;
14007;SDS011;61651;45.508;12.232;2022-08-19T13:57:33;2.40;;;1.30;;
14007;SDS011;61651;45.508;12.232;2022-08-19T14:00:38;1.92;;;1.30;;
14007;SDS011;61651;45.508;12.232;2022-08-19T14:03:41;2.55;;;1.20;;
14007;SDS011;61651;45.508;12.232;2022-08-19T14:06:44;1.00;;;1.00;;
14007;SDS011;61651;45.508;12.232;2022-08-19T14:09:46;1.27;;;1.20;;
14007;SDS011;61651;45.508;12.232;2022-08-19T14:12:51;2.28;;;1.08;;
14007;SDS011;61651;45.508;12.232;2022-08-19T14:15:55;1.48;;;1.15;;
14007;SDS011;61651;45.508;12.232;2022-08-19T14:18:58;1.88;;;1.20;;
14007;SDS011;61651;45.508;12.232;2022-08-19T14:22:00;1.48;;;1.30;;
14007;SDS011;61651;45.508;12.232;2022-08-19T14:25:02;1.80;;;1.30;;
14007;SDS011;61651;45.508;12.232;2022-08-19T14:28:06;2.70;;;1.30;;
14007;SDS011;61651;45.508;12.232;2022-08-19T14:31:08;1.60;;;1.10;;
14007;SDS011;61651;45.508;12.232;2022-08-19T14:34:11;2.00;;;1.27;;
14007;SDS011;61651;45.508;12.232;2022-08-19T14:37:13;2.55;;;1.30;;
14007;SDS011;61651;45.508;12.232;2022-08-19T14:40:16;1.33;;;1.17;;
14007;SDS011;61651;45.508;12.232;2022-08-19T14:43:21;2.17;;;1.20;;
14007;SDS011;61651;45.508;12.232;2022-08-19T14:46:24;2.38;;;1.30;;
14007;SDS011;61651;45.508;12.232;2022-08-19T14:49:27;1.27;;;1.10;;
14007;SDS011;61651;45.508;12.232;2022-08-19T14:52:29;1.58;;;1.02;;
14007;SDS011;61651;45.508;12.232;2022-08-19T14:55:31;1.95;;;1.20;;
14007;SDS011;61651;45.508;12.232;2022-08-19T14:58:36;2.25;;;1.30;;
14007;SDS011;61651;45.508;12.232;2022-08-19T15:01:38;2.80;;;1.40;;
14007;SDS011;61651;45.508;12.232;2022-08-19T15:04:40;1.38;;;1.27;;
14007;SDS011;61651;45.508;12.232;2022-08-19T15:07:42;4.43;;;1.40;;
14007;SDS011;61651;45.508;12.232;2022-08-19T15:10:44;3.40;;;1.25;;
14007;SDS011;61651;45.508;12.232;2022-08-19T15:13:49;1.42;;;1.33;;
14007;SDS011;61651;45.508;12.232;2022-08-19T15:16:53;1.42;;;1.20;;
14007;SDS011;61651;45.508;12.232;2022-08-19T15:19:55;1.50;;;1.10;;
14007;SDS011;61651;45.508;12.232;2022-08-19T15:22:57;2.00;;;1.60;;
14007;SDS011;61651;45.508;12.232;2022-08-19T15:26:00;3.67;;;1.20;;
14007;SDS011;61651;45.508;12.232;2022-08-19T15:29:04;2.03;;;1.10;;
14007;SDS011;61651;45.508;12.232;2022-08-19T15:32:06;1.90;;;1.23;;
14007;SDS011;61651;45.508;12.232;2022-08-19T15:35:08;1.40;;;1.15;;
14007;SDS011;61651;45.508;12.232;2022-08-19T15:38:10;1.30;;;1.17;;
14007;SDS011;61651;45.508;12.232;2022-08-19T15:41:15;1.98;;;1.35;;
14007;SDS011;61651;45.508;12.232;2022-08-19T15:44:26;6.95;;;5.70;;
14007;SDS011;61651;45.508;12.232;2022-08-19T15:47:28;4.13;;;2.40;;
14007;SDS011;61651;45.508;12.232;2022-08-19T15:50:30;3.67;;;1.92;;
14007;SDS011;61651;45.508;12.232;2022-08-19T15:53:33;2.08;;;1.55;;
14007;SDS011;61651;45.508;12.232;2022-08-19T15:56:35;2.33;;;1.38;;
14007;SDS011;61651;45.508;12.232;2022-08-19T16:00:08;1.77;;;1.38;;
14007;SDS011;61651;45.508;12.232;2022-08-19T16:03:28;2.15;;;1.55;;
14007;SDS011;61651;45.508;12.232;2022-08-19T16:06:51;1.85;;;1.50;;
14007;SDS011;61651;45.508;12.232;2022-08-19T16:09:54;1.67;;;1.40;;
14007;SDS011;61651;45.508;12.232;2022-08-19T16:12:56;2.88;;;1.90;;
14007;SDS011;61651;45.508;12.232;2022-08-19T16:16:00;1.65;;;1.55;;
14007;SDS011;61651;45.508;12.232;2022-08-19T16:19:03;2.00;;;1.65;;
14007;SDS011;61651;45.508;12.232;2022-08-19T16:22:07;2.63;;;1.55;;
14007;SDS011;61651;45.508;12.232;2022-08-19T16:25:09;2.72;;;1.83;;
14007;SDS011;61651;45.508;12.232;2022-08-19T16:28:11;1.77;;;1.50;;
14007;SDS011;61651;45.508;12.232;2022-08-19T16:31:16;2.03;;;1.45;;
14007;SDS011;61651;45.508;12.232;2022-08-19T16:34:18;3.28;;;1.67;;
14007;SDS011;61651;45.508;12.232;2022-08-19T16:37:20;2.40;;;1.70;;
14007;SDS011;61651;45.508;12.232;2022-08-19T16:40:22;3.15;;;1.70;;
14007;SDS011;61651;45.508;12.232;2022-08-19T16:43:24;4.18;;;1.77;;
14007;SDS011;61651;45.508;12.232;2022-08-19T16:46:31;1.95;;;1.50;;
14007;SDS011;61651;45.508;12.232;2022-08-19T16:49:33;3.97;;;1.48;;
14007;SDS011;61651;45.508;12.232;2022-08-19T16:52:35;5.40;;;2.22;;
14007;SDS011;61651;45.508;12.232;2022-08-19T16:55:37;2.85;;;1.60;;
14007;SDS011;61651;45.508;12.232;2022-08-19T16:58:39;2.13;;;1.48;;
14007;SDS011;61651;45.508;12.232;2022-08-19T17:01:43;3.15;;;1.90;;
14007;SDS011;61651;45.508;12.232;2022-08-19T17:04:45;2.00;;;1.83;;
14007;SDS011;61651;45.508;12.232;2022-08-19T17:07:48;3.78;;;1.70;;
14007;SDS011;61651;45.508;12.232;2022-08-19T17:10:52;3.17;;;1.75;;
14007;SDS011;61651;45.508;12.232;2022-08-19T17:13:55;2.55;;;1.52;;
14007;SDS011;61651;45.508;12.232;2022-08-19T17:16:59;2.78;;;1.63;;
14007;SDS011;61651;45.508;12.232;2022-08-19T17:20:01;3.40;;;1.60;;
14007;SDS011;61651;45.508;12.232;2022-08-19T17:23:05;1.75;;;1.63;;
14007;SDS011;61651;45.508;12.232;2022-08-19T17:26:07;4.88;;;1.73;;
14007;SDS011;61651;45.508;12.232;2022-08-19T17:29:09;4.95;;;1.90;;
14007;SDS011;61651;45.508;12.232;2022-08-19T17:32:12;4.38;;;1.80;;
14007;SDS011;61651;45.508;12.232;2022-08-19T17:35:14;1.70;;;1.30;;
14007;SDS011;61651;45.508;12.232;2022-08-19T17:38:20;2.60;;;1.73;;
14007;SDS011;61651;45.508;12.232;2022-08-19T17:41:25;2.83;;;1.65;;
14007;SDS011;61651;45.508;12.232;2022-08-19T17:44:29;3.08;;;2.03;;
14007;SDS011;61651;45.508;12.232;2022-08-19T17:47:33;2.28;;;1.40;;
14007;SDS011;61651;45.508;12.232;2022-08-19T17:50:36;2.80;;;1.65;;
14007;SDS011;61651;45.508;12.232;2022-08-19T17:53:38;3.42;;;1.90;;
14007;SDS011;61651;45.508;12.232;2022-08-19T17:56:40;3.10;;;2.03;;
14007;SDS011;61651;45.508;12.232;2022-08-19T17:59:42;5.35;;;2.00;;
14007;SDS011;61651;45.508;12.232;2022-08-19T18:02:50;2.10;;;1.60;;
14007;SDS011;61651;45.508;12.232;2022-08-19T18:05:54;3.45;;;1.58;;
14007;SDS011;61651;45.508;12.232;2022-08-19T18:08:57;4.85;;;1.58;;
14007;SDS011;61651;45.508;12.232;2022-08-19T18:11:59;2.17;;;1.95;;